createdAt,value
2023-04-16T00:04:33.175Z,2.22
2023-04-16T00:09:35.503Z,1.85
2023-04-16T00:14:37.573Z,2.22
2023-04-16T00:19:39.781Z,2.13
2023-04-16T00:24:42.394Z,2.42
2023-04-16T00:29:44.584Z,1.48
2023-04-16T00:34:46.706Z,2.08
2023-04-16T00:39:48.903Z,2.38
2023-04-16T00:44:51.247Z,1.98
2023-04-16T00:49:53.462Z,2.70
2023-04-16T00:54:56.854Z,2.67
2023-04-16T00:59:59.380Z,2.30
2023-04-16T01:05:02.302Z,1.90
2023-04-16T01:10:05.030Z,2.63
2023-04-16T01:15:08.186Z,2.22
2023-04-16T01:20:10.826Z,2.30
2023-04-16T01:25:16.658Z,2.33
2023-04-16T01:30:19.151Z,2.50
2023-04-16T01:35:21.305Z,2.60
2023-04-16T01:40:23.476Z,2.50
2023-04-16T01:45:25.936Z,1.73
2023-04-16T01:50:28.780Z,2.08
2023-04-16T01:55:31.947Z,2.10
2023-04-16T02:00:34.174Z,1.92
2023-04-16T02:05:36.290Z,2.20
2023-04-16T02:10:38.371Z,2.50
2023-04-16T02:15:40.583Z,1.83
2023-04-16T02:20:44.059Z,2.33
2023-04-16T02:25:47.654Z,1.92
2023-04-16T02:30:49.805Z,1.60
2023-04-16T02:35:51.985Z,1.70
2023-04-16T02:40:54.127Z,1.40
2023-04-16T02:45:56.365Z,1.80
2023-04-16T02:50:58.722Z,1.55
2023-04-16T02:56:01.092Z,1.98
2023-04-16T03:01:03.582Z,2.08
2023-04-16T03:06:05.905Z,1.90
2023-04-16T03:11:08.190Z,2.15
2023-04-16T03:16:10.443Z,1.95
2023-04-16T03:21:12.672Z,3.00
2023-04-16T03:26:14.872Z,1.70
2023-04-16T03:31:17.363Z,1.80
2023-04-16T03:36:19.859Z,1.80
2023-04-16T03:41:22.113Z,2.17
2023-04-16T03:46:24.359Z,2.10
2023-04-16T03:51:26.883Z,2.42
2023-04-16T03:56:29.130Z,3.22
2023-04-16T04:01:31.490Z,5.15
2023-04-16T04:06:33.936Z,4.80
2023-04-16T04:11:36.234Z,3.45
2023-04-16T04:16:38.525Z,2.88
2023-04-16T04:21:40.788Z,3.95
2023-04-16T04:26:43.106Z,4.93
2023-04-16T04:31:45.452Z,4.65
2023-04-16T04:36:47.877Z,4.63
2023-04-16T04:41:50.116Z,5.07
2023-04-16T04:46:52.338Z,8.13
2023-04-16T04:51:54.493Z,9.88
2023-04-16T04:56:56.991Z,24.30
2023-04-16T05:01:59.160Z,17.88
2023-04-16T05:07:02.764Z,15.05
2023-04-16T05:12:05.103Z,12.95
2023-04-16T05:17:08.348Z,11.90
2023-04-16T05:22:10.581Z,13.57
2023-04-16T05:27:12.890Z,33.00
2023-04-16T05:32:15.292Z,24.77
2023-04-16T05:37:17.470Z,33.00
2023-04-16T05:42:19.709Z,26.45
2023-04-16T05:47:21.997Z,27.70
2023-04-16T05:52:24.227Z,24.08
2023-04-16T05:57:26.501Z,32.17
2023-04-16T06:02:30.853Z,25.13
2023-04-16T06:07:33.146Z,39.90
2023-04-16T06:12:35.673Z,64.72
2023-04-16T06:17:37.890Z,14.82
2023-04-16T06:22:40.153Z,9.23
2023-04-16T06:27:42.354Z,16.52
2023-04-16T06:32:44.913Z,24.88
2023-04-16T06:37:47.506Z,12.82
2023-04-16T06:42:49.821Z,17.30
2023-04-16T06:47:52.820Z,25.05
2023-04-16T06:52:56.039Z,28.08
2023-04-16T06:57:58.309Z,16.83
2023-04-16T07:03:02.933Z,15.35
2023-04-16T07:08:05.309Z,22.30
2023-04-16T07:13:07.678Z,34.10
2023-04-16T07:18:10.056Z,14.30
2023-04-16T07:23:12.489Z,32.20
2023-04-16T07:28:17.073Z,9.50
2023-04-16T07:33:19.211Z,14.20
2023-04-16T07:38:21.467Z,20.30
2023-04-16T07:43:23.666Z,19.15
2023-04-16T07:48:26.495Z,36.13
2023-04-16T07:53:28.652Z,6.30
2023-04-16T07:58:30.737Z,4.68
2023-04-16T08:03:33.537Z,6.38
2023-04-16T08:08:35.790Z,7.38
2023-04-16T08:13:38.027Z,11.23
2023-04-16T08:18:40.092Z,21.35
2023-04-16T08:23:42.407Z,8.35
2023-04-16T08:28:44.534Z,35.03
2023-04-16T08:33:46.718Z,7.40
2023-04-16T08:38:48.843Z,30.02
2023-04-16T08:43:56.699Z,75.32
2023-04-16T08:49:02.049Z,4.88
2023-04-16T08:54:06.026Z,3.42
2023-04-16T08:59:09.931Z,6.63
2023-04-16T09:04:14.446Z,3.70
2023-04-16T09:09:18.074Z,2.05
2023-04-16T09:14:20.667Z,4.70
2023-04-16T09:19:24.004Z,17.20
2023-04-16T09:24:26.628Z,19.52
2023-04-16T09:29:36.579Z,20.25
2023-04-16T09:35:02.105Z,12.02
2023-04-16T09:40:06.287Z,3.60
2023-04-16T09:45:08.799Z,3.00
2023-04-16T09:50:18.136Z,22.58
2023-04-16T09:55:27.565Z,34.35
2023-04-16T10:00:32.260Z,9.35
2023-04-16T10:05:34.602Z,37.22
2023-04-16T10:10:37.051Z,64.72
2023-04-16T10:15:42.560Z,78.95
2023-04-16T10:20:45.222Z,3.92
2023-04-16T10:25:49.390Z,7.75
2023-04-16T10:30:55.746Z,3.13
2023-04-16T10:36:12.383Z,1.63
2023-04-16T10:41:14.962Z,2.50
2023-04-16T10:46:30.906Z,2.38
2023-04-16T10:51:35.219Z,1.50
2023-04-16T10:56:38.744Z,1.75
2023-04-16T11:01:45.253Z,2.00
2023-04-16T11:07:14.482Z,1.98
2023-04-16T11:12:18.873Z,2.00
2023-04-16T11:17:22.201Z,2.33
2023-04-16T11:22:24.856Z,1.45
2023-04-16T11:27:27.699Z,1.50
2023-04-16T11:32:33.431Z,1.90
2023-04-16T11:37:37.351Z,2.20
2023-04-16T11:42:42.209Z,1.00
2023-04-16T11:47:50.606Z,1.67
2023-04-16T11:52:55.584Z,1.13
2023-04-16T11:58:00.475Z,1.67
2023-04-16T12:03:03.834Z,1.75
2023-04-16T12:08:10.590Z,2.45
2023-04-16T12:13:14.534Z,0.85
2023-04-16T12:18:17.990Z,0.80
2023-04-16T12:23:25.199Z,1.27
2023-04-16T12:28:30.214Z,1.08
2023-04-16T12:33:32.868Z,1.10
2023-04-16T12:38:35.023Z,6.35
2023-04-16T12:43:37.342Z,3.75
2023-04-16T12:48:39.534Z,1.15
2023-04-16T12:53:41.979Z,1.30
2023-04-16T12:58:44.282Z,1.17
2023-04-16T13:03:47.522Z,1.05
2023-04-16T13:08:49.860Z,2.20
2023-04-16T13:13:52.163Z,2.42
2023-04-16T13:18:54.572Z,1.23
2023-04-16T13:23:56.962Z,1.15
2023-04-16T13:28:59.287Z,1.05
2023-04-16T13:34:02.145Z,1.25
2023-04-16T13:39:11.761Z,1.00
2023-04-16T13:44:14.056Z,1.65
2023-04-16T13:49:16.518Z,1.75
2023-04-16T13:54:18.608Z,2.10
2023-04-16T13:59:21.077Z,1.70
2023-04-16T14:04:23.784Z,1.73
2023-04-16T14:09:27.357Z,1.23
2023-04-16T14:14:29.545Z,0.60
2023-04-16T14:19:31.707Z,1.10
2023-04-16T14:24:33.865Z,1.80
2023-04-16T14:29:36.806Z,2.33
2023-04-16T14:34:38.914Z,1.75
2023-04-16T14:39:41.458Z,1.33
2023-04-16T14:44:43.603Z,1.35
2023-04-16T14:49:46.069Z,1.50
2023-04-16T14:54:48.452Z,1.40
2023-04-16T14:59:50.912Z,3.20
2023-04-16T15:04:53.894Z,2.42
2023-04-16T15:09:56.170Z,2.30
2023-04-16T15:15:00.834Z,2.53
2023-04-16T15:20:06.875Z,1.92
2023-04-16T15:25:09.477Z,3.78
2023-04-16T15:30:12.946Z,6.13
2023-04-16T15:35:15.141Z,5.70
2023-04-16T15:40:19.086Z,6.68
2023-04-16T15:45:21.590Z,4.03
2023-04-16T15:50:24.043Z,2.90
2023-04-16T15:55:26.777Z,1.98
2023-04-16T16:00:28.929Z,2.65
2023-04-16T16:05:31.285Z,2.10
2023-04-16T16:10:33.451Z,2.40
2023-04-16T16:15:35.751Z,2.90
2023-04-16T16:20:38.737Z,3.10
2023-04-16T16:25:42.417Z,2.30
2023-04-16T16:30:45.291Z,3.25
2023-04-16T16:35:47.577Z,2.30
2023-04-16T16:40:49.793Z,1.80
2023-04-16T16:45:52.786Z,1.05
2023-04-16T16:50:54.948Z,1.48
2023-04-16T16:55:57.183Z,1.20
2023-04-16T17:01:00.831Z,1.10
2023-04-16T17:06:03.289Z,1.15
2023-04-16T17:11:05.425Z,1.00
2023-04-16T17:16:07.816Z,1.10
2023-04-16T17:21:10.040Z,1.00
2023-04-16T17:26:12.174Z,1.50
2023-04-16T17:31:15.656Z,1.27
2023-04-16T17:36:19.883Z,1.08
2023-04-16T17:41:22.058Z,1.80
2023-04-16T17:46:24.278Z,1.30
2023-04-16T17:51:27.738Z,1.50
2023-04-16T17:56:29.940Z,2.45
2023-04-16T18:01:32.304Z,2.20
2023-04-16T18:06:34.515Z,1.58
2023-04-16T18:11:37.737Z,1.50
2023-04-16T18:16:40.005Z,2.15
2023-04-16T18:21:42.899Z,1.40
2023-04-16T18:26:46.973Z,3.05
2023-04-16T18:31:51.663Z,2.75
2023-04-16T18:36:54.318Z,1.70
2023-04-16T18:41:57.068Z,1.80
2023-04-16T18:46:59.304Z,1.80
2023-04-16T18:52:02.743Z,1.45
2023-04-16T18:57:05.173Z,1.48
2023-04-16T19:02:07.798Z,1.88
2023-04-16T19:07:09.994Z,1.30
2023-04-16T19:12:12.313Z,1.30
2023-04-16T19:17:14.656Z,1.50
2023-04-16T19:22:16.776Z,1.10
2023-04-16T19:27:19.541Z,1.20
2023-04-16T19:32:21.873Z,0.80
2023-04-16T19:37:24.297Z,0.57
2023-04-16T19:42:26.761Z,1.05
2023-04-16T19:47:29.143Z,0.52
2023-04-16T19:52:37.620Z,0.90
2023-04-16T19:57:40.787Z,0.50
2023-04-16T20:02:43.107Z,0.43
2023-04-16T20:07:45.386Z,0.47
2023-04-16T20:12:48.674Z,0.40
2023-04-16T20:17:51.121Z,0.30
2023-04-16T20:22:53.431Z,0.10
2023-04-16T20:27:55.778Z,0.10
2023-04-16T20:32:58.803Z,0.25
2023-04-16T20:38:01.841Z,0.38
2023-04-16T20:43:04.328Z,0.68
2023-04-16T20:48:06.820Z,0.30
2023-04-16T20:53:09.107Z,0.22
2023-04-16T20:58:11.554Z,0.25
2023-04-16T21:03:14.006Z,0.38
2023-04-16T21:08:20.967Z,0.80
2023-04-16T21:13:23.162Z,0.30
2023-04-16T21:18:25.374Z,0.40
2023-04-16T21:23:27.746Z,0.40
2023-04-16T21:28:29.927Z,0.30
2023-04-16T21:33:32.249Z,0.30
2023-04-16T21:38:34.491Z,0.20
2023-04-16T21:43:36.689Z,0.40
2023-04-16T21:48:38.866Z,0.40
2023-04-16T21:53:41.078Z,0.38
2023-04-16T21:58:43.273Z,0.20
2023-04-16T22:03:47.521Z,0.20
2023-04-16T22:08:50.282Z,0.43
2023-04-16T22:13:52.473Z,0.70
2023-04-16T22:18:55.276Z,1.55
2023-04-16T22:23:57.447Z,1.02
2023-04-16T22:28:59.606Z,0.85
2023-04-16T22:34:03.349Z,1.17
2023-04-16T22:39:08.887Z,1.23
2023-04-16T22:44:11.255Z,1.02
2023-04-16T22:49:14.193Z,1.17
2023-04-16T22:54:18.474Z,0.90
2023-04-16T22:59:20.829Z,1.15
2023-04-16T23:04:23.072Z,0.90
2023-04-16T23:09:26.119Z,0.70
2023-04-16T23:14:28.345Z,0.52
2023-04-16T23:19:32.270Z,0.28
2023-04-16T23:24:34.572Z,0.50
2023-04-16T23:29:36.827Z,0.70
2023-04-16T23:34:38.989Z,0.40
2023-04-16T23:39:41.367Z,0.40
2023-04-16T23:44:43.508Z,0.20
2023-04-16T23:49:45.876Z,0.45
2023-04-16T23:54:48.082Z,0.35
2023-04-16T23:59:50.412Z,0.40
